KAQR

Atoka Municipal Airport

Atoka, Oklahoma, USA
METAR KAQR 201235Z AUTO 16003KT 4SM BR BKN005 OVC010 09/09 A2997 RMK AO2
Observed Flight Rules
Jan-20 @ 12:35 UTC (31 minutes ago) Instrument Flight Rules
Wind Visibility Clouds Conditions
160° at 3 knots 4 miles
  • Broken at 500' AGL
  • Overcast at 1,000' AGL
  • Mist
Temperatures Readings
Current 9°C / 48°F
Dewpoint 9°C / 48°F
Humidity 100%
Altimeter 29.97" Hg
Pressure 1015 hPa
Elevation 189
METAR KAQR 201235Z AUTO 16003KT 4SM BR BKN005 OVC010 09/09 A2997 RMK AO2
Observed Flight Rules
Jan-20 @ 12:35 UTC
(31 minutes ago)
IFR
Wind Visibility
160° at 3 knots 4 miles
Clouds
  • Broken at 500' AGL
  • Overcast at 1,000' AGL
Conditions
  • Mist
Temperature Dewpoint
9°C / 48°F 9°C / 48°F
Humidity Altimeter Pressure
100% 29.97" Hg 1015 hPa